Time,TemperatureF,DewpointF,PressureIn,WindDirection,WindDirectionDegrees,WindSpeedMPH,WindSpeedGustMPH,Humidity,HourlyPrecipIn,Conditions,Clouds,dailyrainin,SoftwareType,DateUTC
2013-01-26 00:04:00,9.5,-4.6,30.19,NW,315,6.0,8.1,52,0.00,CLR,,0.00,WeatherDisplay:10.37,2013-01-26 06:04:00,
2013-01-26 00:09:00,9.5,-4.6,30.19,WNW,292,3.8,5.4,52,0.00,CLR,,0.00,WeatherDisplay:10.37,2013-01-26 06:09:00,
2013-01-26 00:14:00,9.5,-4.6,30.22,WNW,292,2.9,4.6,52,0.00,CLR,,0.00,WeatherDisplay:10.37,2013-01-26 06:14:00,
2013-01-26 00:19:00,9.3,-4.8,30.22,NW,315,3.6,4.0,52,0.00,CLR,,0.00,WeatherDisplay:10.37,2013-01-26 06:19:00,
2013-01-26 00:24:00,9.1,-5.0,30.22,NW,315,4.5,5.8,52,0.00,CLR,,0.00,WeatherDisplay:10.37,2013-01-26 06:24:00,
2013-01-26 00:29:00,9.3,-4.8,30.19,WNW,292,4.3,9.2,52,0.00,CLR,,0.00,WeatherDisplay:10.37,2013-01-26 06:29:00,
2013-01-26 00:34:00,9.1,-5.0,30.19,NW,315,4.3,5.9,52,0.00,CLR,,0.00,WeatherDisplay:10.37,2013-01-26 06:34:00,
2013-01-26 00:39:00,9.0,-5.1,30.19,NW,315,4.5,7.1,52,0.00,CLR,,0.00,WeatherDisplay:10.37,2013-01-26 06:39:00,
2013-01-26 00:44:00,9.0,-5.1,30.19,NW,315,4.5,5.8,52,0.00,CLR,,0.00,WeatherDisplay:10.37,2013-01-26 06:44:00,
2013-01-26 00:49:00,8.8,-5.3,30.19,WNW,292,3.8,5.8,52,0.00,CLR,,0.00,WeatherDisplay:10.37,2013-01-26 06:49:00,
2013-01-26 00:54:00,9.0,-5.1,30.19,NW,315,5.9,8.1,52,0.00,CLR,,0.00,WeatherDisplay:10.37,2013-01-26 06:54:00,
2013-01-26 00:59:00,9.0,-5.1,30.22,West,270,5.4,6.9,52,0.00,CLR,,0.00,WeatherDisplay:10.37,2013-01-26 06:59:00,
2013-01-26 01:04:00,8.6,-5.5,30.22,West,270,5.9,8.1,52,0.00,CLR,,0.00,WeatherDisplay:10.37,2013-01-26 07:04:00,
2013-01-26 01:09:00,8.8,-5.3,30.22,NNW,338,4.9,6.9,52,0.00,CLR,,0.00,WeatherDisplay:10.37,2013-01-26 07:09:00,
2013-01-26 01:14:00,8.6,-5.5,30.22,NW,315,3.1,4.0,52,0.00,CLR,,0.00,WeatherDisplay:10.37,2013-01-26 07:14:00,
2013-01-26 01:19:00,8.6,-5.5,30.22,NW,315,3.3,4.6,52,0.00,CLR,,0.00,WeatherDisplay:10.37,2013-01-26 07:19:00,
2013-01-26 01:24:00,8.4,-5.6,30.22,WNW,292,3.8,4.6,52,0.00,CLR,,0.00,WeatherDisplay:10.37,2013-01-26 07:24:00,
2013-01-26 01:29:00,8.4,-5.6,30.25,NW,315,4.3,5.8,52,0.00,CLR,,0.00,WeatherDisplay:10.37,2013-01-26 07:29:00,
2013-01-26 01:34:00,8.2,-5.8,30.25,WNW,292,3.3,4.6,52,0.00,CLR,,0.00,WeatherDisplay:10.37,2013-01-26 07:34:00,
2013-01-26 01:39:00,8.2,-5.8,30.25,NW,315,5.6,6.9,52,0.00,CLR,,0.00,WeatherDisplay:10.37,2013-01-26 07:39:00,
2013-01-26 01:44:00,8.1,-6.0,30.25,WNW,292,2.4,5.8,52,0.00,CLR,,0.00,WeatherDisplay:10.37,2013-01-26 07:44:00,
2013-01-26 01:49:00,7.9,-6.1,30.25,WNW,292,3.6,4.6,52,0.00,CLR,,0.00,WeatherDisplay:10.37,2013-01-26 07:49:00,
2013-01-26 01:54:00,7.9,-6.1,30.25,West,270,4.0,4.6,52,0.00,CLR,,0.00,WeatherDisplay:10.37,2013-01-26 07:54:00,
2013-01-26 01:59:00,7.9,-6.1,30.25,West,270,3.1,4.6,52,0.00,CLR,,0.00,WeatherDisplay:10.37,2013-01-26 07:59:00,
2013-01-26 02:04:00,7.9,-6.1,30.25,NW,315,4.0,5.4,52,0.00,CLR,,0.00,WeatherDisplay:10.37,2013-01-26 08:04:00,
2013-01-26 02:09:00,7.9,-6.1,30.25,NW,315,6.0,8.1,52,0.00,CLR,,0.00,WeatherDisplay:10.37,2013-01-26 08:09:00,
2013-01-26 02:14:00,7.9,-6.1,30.25,WNW,292,4.3,4.6,52,0.00,CLR,,0.00,WeatherDisplay:10.37,2013-01-26 08:14:00,
2013-01-26 02:19:00,7.7,-6.3,30.25,NNW,338,3.3,5.8,52,0.00,CLR,,0.00,WeatherDisplay:10.37,2013-01-26 08:19:00,
2013-01-26 02:24:00,7.9,-6.1,30.25,NW,315,4.3,5.8,52,0.00,CLR,,0.00,WeatherDisplay:10.37,2013-01-26 08:24:00,
2013-01-26 02:29:00,7.7,-6.3,30.25,WNW,292,3.3,4.6,52,0.00,CLR,,0.00,WeatherDisplay:10.37,2013-01-26 08:29:00,
2013-01-26 02:34:00,7.5,-6.5,30.25,NW,315,3.3,4.6,52,0.00,CLR,,0.00,WeatherDisplay:10.37,2013-01-26 08:34:00,
2013-01-26 02:39:00,7.5,-6.5,30.25,WNW,292,3.8,4.6,52,0.00,CLR,,0.00,WeatherDisplay:10.37,2013-01-26 08:39:00,
2013-01-26 02:44:00,7.3,-6.6,30.25,NNW,338,3.1,4.6,52,0.00,CLR,,0.00,WeatherDisplay:10.37,2013-01-26 08:44:00,
2013-01-26 02:49:00,7.2,-6.8,30.25,NW,315,3.3,5.8,52,0.00,CLR,,0.00,WeatherDisplay:10.37,2013-01-26 08:49:00,
2013-01-26 02:54:00,7.2,-6.8,30.25,WNW,292,2.6,3.5,52,0.00,CLR,,0.00,WeatherDisplay:10.37,2013-01-26 08:54:00,
2013-01-26 02:59:00,7.2,-6.8,30.25,NW,315,3.1,4.6,52,0.00,CLR,,0.00,WeatherDisplay:10.37,2013-01-26 08:59:00,
2013-01-26 03:04:00,7.0,-7.0,30.25,NNW,338,2.4,4.6,52,0.00,CLR,,0.00,WeatherDisplay:10.37,2013-01-26 09:04:00,
2013-01-26 03:09:00,7.0,-7.0,30.25,WNW,292,2.9,3.5,52,0.00,CLR,,0.00,WeatherDisplay:10.37,2013-01-26 09:09:00,
2013-01-26 03:14:00,6.8,-7.1,30.25,NW,315,3.1,4.6,52,0.00,CLR,,0.00,WeatherDisplay:10.37,2013-01-26 09:14:00,
2013-01-26 03:19:00,6.8,-7.1,30.25,NNW,338,3.3,4.6,52,0.00,CLR,,0.00,WeatherDisplay:10.37,2013-01-26 09:19:00,
2013-01-26 03:25:00,6.6,-7.3,30.25,NNW,338,2.6,3.5,52,0.00,CLR,,0.00,WeatherDisplay:10.37,2013-01-26 09:25:00,
2013-01-26 03:30:00,6.4,-7.5,30.25,NW,315,2.4,3.5,52,0.00,CLR,,0.00,WeatherDisplay:10.37,2013-01-26 09:30:00,
2013-01-26 03:35:00,6.4,-7.5,30.25,NNW,338,2.9,3.5,52,0.00,CLR,,0.00,WeatherDisplay:10.37,2013-01-26 09:35:00,
2013-01-26 03:40:00,6.4,-7.5,30.25,WNW,292,3.1,4.6,52,0.00,CLR,,0.00,WeatherDisplay:10.37,2013-01-26 09:40:00,
2013-01-26 03:45:00,6.4,-7.5,30.25,WNW,292,2.9,3.5,52,0.00,CLR,,0.00,WeatherDisplay:10.37,2013-01-26 09:45:00,
2013-01-26 03:50:00,6.3,-7.6,30.25,WNW,292,2.6,2.6,52,0.00,CLR,,0.00,WeatherDisplay:10.37,2013-01-26 09:50:00,
2013-01-26 03:55:00,6.3,-7.6,30.25,WNW,292,2.9,3.5,52,0.00,CLR,,0.00,WeatherDisplay:10.37,2013-01-26 09:55:00,
2013-01-26 04:00:00,6.1,-7.8,30.25,WNW,292,2.2,2.6,52,0.00,CLR,,0.00,WeatherDisplay:10.37,2013-01-26 10:00:00,
2013-01-26 04:05:00,5.9,-8.0,30.25,NW,315,0.9,1.1,52,0.00,CLR,,0.00,WeatherDisplay:10.37,2013-01-26 10:05:00,
2013-01-26 04:10:00,5.5,-8.3,30.25,NW,315,0.0,2.0,52,0.00,CLR,,0.00,WeatherDisplay:10.37,2013-01-26 10:10:00,
2013-01-26 04:15:00,5.5,-8.3,30.25,NW,315,2.2,2.3,52,0.00,CLR,,0.00,WeatherDisplay:10.37,2013-01-26 10:15:00,
2013-01-26 04:20:00,5.5,-8.3,30.25,NW,315,2.4,3.5,52,0.00,CLR,,0.00,WeatherDisplay:10.37,2013-01-26 10:20:00,
2013-01-26 04:25:00,5.5,-8.3,30.25,NW,315,2.6,2.6,52,0.00,CLR,,0.00,WeatherDisplay:10.37,2013-01-26 10:25:00,
2013-01-26 04:30:00,5.0,-8.8,30.25,WNW,292,0.0,0.0,52,0.00,CLR,,0.00,WeatherDisplay:10.37,2013-01-26 10:30:00,
2013-01-26 04:35:00,4.8,-9.0,30.25,WNW,292,0.0,0.0,52,0.00,CLR,,0.00,WeatherDisplay:10.37,2013-01-26 10:35:00,
2013-01-26 04:40:00,4.5,-9.3,30.25,WNW,292,1.6,2.3,52,0.00,CLR,,0.00,WeatherDisplay:10.37,2013-01-26 10:40:00,
2013-01-26 04:45:00,4.6,-9.2,30.25,NNW,338,2.0,2.3,52,0.00,CLR,,0.00,WeatherDisplay:10.37,2013-01-26 10:45:00,
2013-01-26 04:50:00,4.5,-9.3,30.25,WNW,292,0.0,2.0,52,0.00,CLR,,0.00,WeatherDisplay:10.37,2013-01-26 10:50:00,
2013-01-26 04:55:00,4.1,-9.7,30.25,West,270,0.0,0.0,52,0.00,CLR,,0.00,WeatherDisplay:10.37,2013-01-26 10:55:00,
2013-01-26 05:00:00,3.6,-10.2,30.25,NW,315,1.6,2.4,52,0.00,CLR,,0.00,WeatherDisplay:10.37,2013-01-26 11:00:00,
2013-01-26 05:05:00,3.7,-10.0,30.25,West,270,1.4,2.3,52,0.00,CLR,,0.00,WeatherDisplay:10.37,2013-01-26 11:05:00,
2013-01-26 05:10:00,3.7,-10.0,30.25,West,270,0.0,0.0,52,0.00,CLR,,0.00,WeatherDisplay:10.37,2013-01-26 11:10:00,
2013-01-26 05:15:00,3.2,-10.5,30.25,WNW,292,0.9,3.1,52,0.00,CLR,,0.00,WeatherDisplay:10.37,2013-01-26 11:15:00,
2013-01-26 05:20:00,3.2,-10.5,30.25,WSW,248,2.4,2.4,52,0.00,CLR,,0.00,WeatherDisplay:10.37,2013-01-26 11:20:00,
2013-01-26 05:25:00,2.8,-10.8,30.27,West,270,0.9,2.4,52,0.00,CLR,,0.00,WeatherDisplay:10.37,2013-01-26 11:25:00,
2013-01-26 05:30:00,2.5,-11.2,30.27,West,270,2.0,3.5,52,0.00,CLR,,0.00,WeatherDisplay:10.37,2013-01-26 11:30:00,
2013-01-26 05:35:00,1.9,-11.7,30.27,West,270,1.4,2.3,52,0.00,CLR,,0.00,WeatherDisplay:10.37,2013-01-26 11:35:00,
2013-01-26 05:40:00,1.8,-11.8,30.27,West,270,1.6,2.3,52,0.00,CLR,,0.00,WeatherDisplay:10.37,2013-01-26 11:40:00,
2013-01-26 05:45:00,1.8,-11.8,30.27,NW,315,1.6,2.3,52,0.00,CLR,,0.00,WeatherDisplay:10.37,2013-01-26 11:45:00,
2013-01-26 05:50:00,1.6,-12.0,30.27,WNW,292,2.0,2.3,52,0.00,CLR,,0.00,WeatherDisplay:10.37,2013-01-26 11:50:00,
2013-01-26 05:55:00,1.6,-12.0,30.27,WNW,292,1.4,2.3,52,0.00,CLR,,0.00,WeatherDisplay:10.37,2013-01-26 11:55:00,
2013-01-26 06:00:00,1.2,-12.3,30.27,West,270,1.1,2.3,52,0.00,CLR,,0.00,WeatherDisplay:10.37,2013-01-26 12:00:00,
2013-01-26 06:05:00,0.7,-12.9,30.27,West,270,0.0,0.0,52,0.00,CLR,,0.00,WeatherDisplay:10.37,2013-01-26 12:05:00,
2013-01-26 06:10:00,0.5,-13.0,30.30,West,270,0.0,0.0,52,0.00,CLR,,0.00,WeatherDisplay:10.37,2013-01-26 12:10:00,
2013-01-26 06:15:00,0.3,-13.2,30.30,West,270,2.0,2.4,52,0.00,CLR,,0.00,WeatherDisplay:10.37,2013-01-26 12:15:00,
2013-01-26 06:20:00,0.5,-13.0,30.30,WNW,292,0.9,1.1,52,0.00,CLR,,0.00,WeatherDisplay:10.37,2013-01-26 12:20:00,
2013-01-26 06:25:00,0.5,-13.0,30.30,West,270,0.0,1.6,52,0.00,CLR,,0.00,WeatherDisplay:10.37,2013-01-26 12:25:00,
2013-01-26 06:30:00,0.3,-13.2,30.30,WNW,292,0.0,0.0,52,0.00,CLR,,0.00,WeatherDisplay:10.37,2013-01-26 12:30:00,
2013-01-26 06:35:00,0.1,-13.4,30.30,WNW,292,0.0,0.0,52,0.00,CLR,,0.00,WeatherDisplay:10.37,2013-01-26 12:35:00,
2013-01-26 06:40:00,0.3,-13.2,30.30,NNW,338,0.9,1.1,52,0.00,CLR,,0.00,WeatherDisplay:10.37,2013-01-26 12:40:00,
2013-01-26 06:45:00,0.1,-13.4,30.30,West,270,0.0,2.3,52,0.00,CLR,,0.00,WeatherDisplay:10.37,2013-01-26 12:45:00,
2013-01-26 06:50:00,0.1,-13.4,30.30,WNW,292,0.0,0.0,52,0.00,CLR,,0.00,WeatherDisplay:10.37,2013-01-26 12:50:00,
2013-01-26 06:55:00,0.3,-13.2,30.30,WNW,292,0.9,2.3,52,0.00,CLR,,0.00,WeatherDisplay:10.37,2013-01-26 12:55:00,
2013-01-26 07:00:00,0.0,-13.5,30.30,NW,315,1.6,2.3,52,0.00,CLR,,0.00,WeatherDisplay:10.37,2013-01-26 13:00:00,
2013-01-26 07:05:00,0.3,-13.2,30.30,NW,315,2.2,2.6,52,0.00,CLR,,0.00,WeatherDisplay:10.37,2013-01-26 13:05:00,
2013-01-26 07:10:00,0.7,-12.9,30.27,North,0,0.0,2.3,52,0.00,CLR,,0.00,WeatherDisplay:10.37,2013-01-26 13:10:00,
2013-01-26 07:15:00,0.7,-12.9,30.27,NNW,338,0.0,1.1,52,0.00,CLR,,0.00,WeatherDisplay:10.37,2013-01-26 13:15:00,
2013-01-26 07:20:00,0.7,-12.9,30.27,NW,315,0.0,1.1,52,0.00,CLR,,0.00,WeatherDisplay:10.37,2013-01-26 13:20:00,
2013-01-26 07:25:00,0.7,-12.9,30.30,NW,315,0.0,0.0,52,0.00,CLR,,0.00,WeatherDisplay:10.37,2013-01-26 13:25:00,
2013-01-26 07:30:00,1.2,-12.3,30.30,WSW,248,2.0,2.3,52,0.00,CLR,,0.00,WeatherDisplay:10.37,2013-01-26 13:30:00,
2013-01-26 07:35:00,2.3,-11.3,30.30,WSW,248,0.0,0.0,52,0.00,CLR,,0.00,WeatherDisplay:10.37,2013-01-26 13:35:00,
2013-01-26 07:40:00,2.8,-10.8,30.30,WSW,248,0.0,0.0,52,0.00,CLR,,0.00,WeatherDisplay:10.37,2013-01-26 13:40:00,
2013-01-26 07:45:00,2.7,-11.0,30.30,ESE,112,0.0,1.1,52,0.00,CLR,,0.00,WeatherDisplay:10.37,2013-01-26 13:45:00,
2013-01-26 07:50:00,2.8,-10.8,30.30,ESE,112,0.0,0.0,52,0.00,CLR,,0.00,WeatherDisplay:10.37,2013-01-26 13:50:00,
2013-01-26 07:55:00,3.7,-10.0,30.30,ESE,112,0.0,0.0,52,0.00,CLR,,0.00,WeatherDisplay:10.37,2013-01-26 13:55:00,
2013-01-26 08:00:00,5.0,-8.8,30.30,ESE,112,0.0,0.0,52,0.00,CLR,,0.00,WeatherDisplay:10.37,2013-01-26 14:00:00,
2013-01-26 08:05:00,6.1,-7.8,30.30,ESE,112,0.0,0.0,52,0.00,CLR,,0.00,WeatherDisplay:10.37,2013-01-26 14:05:00,
2013-01-26 08:10:00,7.2,-6.8,30.30,ESE,112,0.0,0.0,52,0.00,CLR,,0.00,WeatherDisplay:10.37,2013-01-26 14:10:00,
2013-01-26 08:15:00,8.2,-5.8,30.30,ESE,112,0.0,0.0,52,0.00,CLR,,0.00,WeatherDisplay:10.37,2013-01-26 14:15:00,
2013-01-26 08:20:00,12.0,-2.3,30.30,ESE,112,0.0,0.0,52,0.00,CLR,,0.00,WeatherDisplay:10.37,2013-01-26 14:20:00,
2013-01-26 08:25:00,12.2,-2.1,30.33,ESE,112,0.0,0.0,52,0.00,CLR,,0.00,WeatherDisplay:10.37,2013-01-26 14:25:00,
2013-01-26 08:30:00,10.8,-3.4,30.33,ESE,112,0.0,0.0,52,0.00,CLR,,0.00,WeatherDisplay:10.37,2013-01-26 14:30:00,
2013-01-26 08:35:00,10.9,-3.3,30.33,ESE,112,0.0,0.0,52,0.00,CLR,,0.00,WeatherDisplay:10.37,2013-01-26 14:35:00,
2013-01-26 08:40:00,12.4,-1.9,30.33,WNW,292,0.0,0.0,52,0.00,CLR,,0.00,WeatherDisplay:10.37,2013-01-26 14:40:00,
2013-01-26 08:45:00,13.5,-0.9,30.33,WNW,292,0.0,0.0,52,0.00,CLR,,0.00,WeatherDisplay:10.37,2013-01-26 14:45:00,
2013-01-26 08:50:00,15.8,3.2,30.33,WNW,292,0.0,0.0,57,0.00,CLR,,0.00,WeatherDisplay:10.37,2013-01-26 14:50:00,
2013-01-26 08:55:00,18.3,5.2,30.36,WNW,292,0.0,0.0,56,0.00,CLR,,0.00,WeatherDisplay:10.37,2013-01-26 14:55:00,
2013-01-26 09:00:00,19.4,6.2,30.36,NNE,22,0.0,0.0,56,0.00,CLR,,0.00,WeatherDisplay:10.37,2013-01-26 15:00:00,
2013-01-26 09:05:00,18.1,4.3,30.36,NNE,22,2.0,2.3,54,0.00,CLR,,0.00,WeatherDisplay:10.37,2013-01-26 15:05:00,
2013-01-26 09:10:00,19.2,4.9,30.33,NNE,22,0.0,2.0,53,0.00,CLR,,0.00,WeatherDisplay:10.37,2013-01-26 15:10:00,
2013-01-26 09:15:00,19.6,3.5,30.33,North,0,0.0,1.1,49,0.00,CLR,,0.00,WeatherDisplay:10.37,2013-01-26 15:15:00,
2013-01-26 09:20:00,21.2,5.4,30.33,North,0,0.9,2.3,50,0.00,CLR,,0.00,WeatherDisplay:10.37,2013-01-26 15:20:00,
2013-01-26 09:25:00,21.7,4.6,30.36,NNE,22,0.0,0.0,47,0.00,CLR,,0.00,WeatherDisplay:10.37,2013-01-26 15:25:00,
2013-01-26 09:30:00,21.2,4.5,30.36,West,270,0.0,0.0,48,0.00,CLR,,0.00,WeatherDisplay:10.37,2013-01-26 15:30:00,
2013-01-26 09:35:00,20.3,2.3,30.36,SSE,158,0.0,0.0,45,0.00,CLR,,0.00,WeatherDisplay:10.37,2013-01-26 15:35:00,
2013-01-26 09:40:00,22.1,4.9,30.36,North,0,0.9,1.1,47,0.00,CLR,,0.00,WeatherDisplay:10.37,2013-01-26 15:40:00,
2013-01-26 09:45:00,23.5,5.8,30.36,NNW,338,0.0,2.0,46,0.00,CLR,,0.00,WeatherDisplay:10.37,2013-01-26 15:45:00,
2013-01-26 09:50:00,25.0,7.1,30.36,WNW,292,2.0,2.3,46,0.00,CLR,,0.00,WeatherDisplay:10.37,2013-01-26 15:50:00,
2013-01-26 09:55:00,25.3,6.9,30.36,West,270,2.2,2.3,45,0.00,CLR,,0.00,WeatherDisplay:10.37,2013-01-26 15:55:00,
2013-01-26 10:00:00,26.4,7.4,30.36,North,0,1.4,2.6,44,0.00,CLR,,0.00,WeatherDisplay:10.37,2013-01-26 16:00:00,
2013-01-26 10:05:00,26.6,7.1,30.36,NNE,22,0.9,1.1,43,0.00,CLR,,0.00,WeatherDisplay:10.37,2013-01-26 16:05:00,
2013-01-26 10:10:00,27.0,7.4,30.36,WNW,292,2.2,2.3,43,0.00,CLR,,0.00,WeatherDisplay:10.37,2013-01-26 16:10:00,
2013-01-26 10:15:00,27.0,7.4,30.36,NE,45,0.0,0.0,43,0.00,CLR,,0.00,WeatherDisplay:10.37,2013-01-26 16:15:00,
2013-01-26 10:20:00,27.5,6.8,30.36,NW,315,0.0,2.3,41,0.00,CLR,,0.00,WeatherDisplay:10.37,2013-01-26 16:20:00,
2013-01-26 10:26:00,27.5,6.8,30.33,WSW,248,2.4,3.5,41,0.00,CLR,,0.00,WeatherDisplay:10.37,2013-01-26 16:26:00,
2013-01-26 10:31:00,27.5,6.8,30.33,NE,45,0.0,3.5,41,0.00,CLR,,0.00,WeatherDisplay:10.37,2013-01-26 16:31:00,
2013-01-26 10:36:00,27.5,6.8,30.33,WNW,292,0.0,1.6,41,0.00,CLR,,0.00,WeatherDisplay:10.37,2013-01-26 16:36:00,
2013-01-26 10:41:00,27.5,6.8,30.36,WNW,292,1.4,2.4,41,0.00,CLR,,0.00,WeatherDisplay:10.37,2013-01-26 16:41:00,
2013-01-26 10:46:00,27.5,6.8,30.36,West,270,2.0,4.6,41,0.00,CLR,,0.00,WeatherDisplay:10.37,2013-01-26 16:46:00,
2013-01-26 10:51:00,27.5,6.8,30.36,East,90,0.0,1.1,41,0.00,CLR,,0.00,WeatherDisplay:10.37,2013-01-26 16:51:00,
2013-01-26 10:56:00,27.5,6.8,30.33,WNW,292,0.0,2.0,41,0.00,CLR,,0.00,WeatherDisplay:10.37,2013-01-26 16:56:00,
2013-01-26 11:01:00,30.2,7.6,30.33,NE,45,1.1,2.3,38,0.00,CLR,,0.00,WeatherDisplay:10.37,2013-01-26 17:01:00,
2013-01-26 11:06:00,30.2,7.6,30.33,ENE,68,1.6,2.3,38,0.00,CLR,,0.00,WeatherDisplay:10.37,2013-01-26 17:06:00,
2013-01-26 11:11:00,28.4,6.0,30.36,NNE,22,1.6,2.3,38,0.00,CLR,,0.00,WeatherDisplay:10.37,2013-01-26 17:11:00,
2013-01-26 11:16:00,28.8,5.7,30.36,NW,315,1.1,2.3,37,0.00,CLR,,0.00,WeatherDisplay:10.37,2013-01-26 17:16:00,
2013-01-26 11:21:00,29.5,7.0,30.36,North,0,2.4,2.4,38,0.00,CLR,,0.00,WeatherDisplay:10.37,2013-01-26 17:21:00,
2013-01-26 11:26:00,30.2,7.0,30.33,West,270,0.0,1.1,37,0.00,CLR,,0.00,WeatherDisplay:10.37,2013-01-26 17:26:00,
2013-01-26 11:31:00,31.1,7.8,30.33,ESE,112,0.9,2.3,37,0.00,CLR,,0.00,WeatherDisplay:10.37,2013-01-26 17:31:00,
2013-01-26 11:36:00,31.8,7.9,30.33,East,90,2.4,2.4,36,0.00,CLR,,0.00,WeatherDisplay:10.37,2013-01-26 17:36:00,
2013-01-26 11:41:00,29.3,5.6,30.36,West,270,0.0,0.0,36,0.00,CLR,,0.00,WeatherDisplay:10.37,2013-01-26 17:41:00,
2013-01-26 11:46:00,27.9,3.7,30.36,SSE,158,1.4,3.5,35,0.00,CLR,,0.00,WeatherDisplay:10.37,2013-01-26 17:46:00,
2013-01-26 11:51:00,28.9,4.7,30.36,NW,315,0.0,0.0,35,0.00,CLR,,0.00,WeatherDisplay:10.37,2013-01-26 17:51:00,
2013-01-26 11:56:00,29.1,5.4,30.36,West,270,0.0,1.1,36,0.00,CLR,,0.00,WeatherDisplay:10.37,2013-01-26 17:56:00,
2013-01-26 12:01:00,26.2,2.9,30.36,SSE,158,3.3,5.8,36,0.00,CLR,,0.00,WeatherDisplay:10.37,2013-01-26 18:01:00,
2013-01-26 12:06:00,26.8,2.7,30.36,NNE,22,2.2,2.3,35,0.00,CLR,,0.00,WeatherDisplay:10.37,2013-01-26 18:06:00,
2013-01-26 12:11:00,27.5,3.4,30.33,ESE,112,0.0,1.1,35,0.00,CLR,,0.00,WeatherDisplay:10.37,2013-01-26 18:11:00,
2013-01-26 12:16:00,25.3,2.1,30.33,ESE,112,0.0,0.0,36,0.00,CLR,,0.00,WeatherDisplay:10.37,2013-01-26 18:16:00,
2013-01-26 12:21:00,27.1,3.7,30.33,WSW,248,1.4,2.3,36,0.00,CLR,,0.00,WeatherDisplay:10.37,2013-01-26 18:21:00,
2013-01-26 12:26:00,27.7,4.2,30.36,SW,225,2.2,3.5,36,0.00,CLR,,0.00,WeatherDisplay:10.37,2013-01-26 18:26:00,
2013-01-26 12:31:00,27.1,3.7,30.36,SE,135,1.4,3.5,36,0.00,CLR,,0.00,WeatherDisplay:10.37,2013-01-26 18:31:00,
2013-01-26 12:36:00,26.1,2.7,30.36,SSE,158,2.6,3.5,36,0.00,CLR,,0.00,WeatherDisplay:10.37,2013-01-26 18:36:00,
2013-01-26 12:41:00,25.7,2.4,30.33,ESE,112,3.3,4.6,36,0.00,CLR,,0.00,WeatherDisplay:10.37,2013-01-26 18:41:00,
2013-01-26 12:46:00,26.1,2.7,30.33,ENE,68,3.1,4.6,36,0.00,CLR,,0.00,WeatherDisplay:10.37,2013-01-26 18:46:00,
2013-01-26 12:51:00,26.2,2.9,30.33,ESE,112,2.9,4.6,36,0.00,CLR,,0.00,WeatherDisplay:10.37,2013-01-26 18:51:00,
2013-01-26 12:56:00,26.4,3.0,30.33,SE,135,5.6,5.8,36,0.00,CLR,,0.00,WeatherDisplay:10.37,2013-01-26 18:56:00,
2013-01-26 13:01:00,26.2,3.5,30.33,West,270,2.6,4.6,37,0.00,CLR,,0.00,WeatherDisplay:10.37,2013-01-26 19:01:00,
2013-01-26 13:06:00,26.6,3.8,30.33,South,180,5.9,13.8,37,0.00,CLR,,0.00,WeatherDisplay:10.37,2013-01-26 19:06:00,
2013-01-26 13:11:00,25.7,3.0,30.33,South,180,5.4,5.8,37,0.00,CLR,,0.00,WeatherDisplay:10.37,2013-01-26 19:11:00,
2013-01-26 13:16:00,25.5,2.2,30.33,SSE,158,4.7,5.8,36,0.00,CLR,,0.00,WeatherDisplay:10.37,2013-01-26 19:16:00,
2013-01-26 13:21:00,24.4,1.8,30.33,SSE,158,5.4,6.9,37,0.00,CLR,,0.00,WeatherDisplay:10.37,2013-01-26 19:21:00,
2013-01-26 13:26:00,24.6,2.6,30.27,South,180,2.0,4.6,38,0.00,CLR,,0.00,WeatherDisplay:10.37,2013-01-26 19:26:00,
2013-01-26 13:31:00,24.1,1.5,30.27,South,180,3.6,5.8,37,0.00,CLR,,0.00,WeatherDisplay:10.37,2013-01-26 19:31:00,
2013-01-26 13:36:00,23.2,0.7,30.27,South,180,5.6,8.1,37,0.00,CLR,,0.00,WeatherDisplay:10.37,2013-01-26 19:36:00,
2013-01-26 13:41:00,23.4,1.4,30.30,SSE,158,3.1,4.6,38,0.00,CLR,,0.00,WeatherDisplay:10.37,2013-01-26 19:41:00,
2013-01-26 13:46:00,23.9,1.9,30.30,SSE,158,3.8,5.8,38,0.00,CLR,,0.00,WeatherDisplay:10.37,2013-01-26 19:46:00,
2013-01-26 13:51:00,23.9,1.9,30.30,South,180,3.1,4.6,38,0.00,CLR,,0.00,WeatherDisplay:10.37,2013-01-26 19:51:00,
2013-01-26 13:56:00,23.7,1.8,30.30,South,180,2.9,4.9,38,0.00,CLR,,0.00,WeatherDisplay:10.37,2013-01-26 19:56:00,
2013-01-26 14:01:00,23.5,1.6,30.30,SW,225,2.4,2.9,38,0.00,CLR,,0.00,WeatherDisplay:10.37,2013-01-26 20:01:00,
2013-01-26 14:06:00,23.9,2.5,30.30,SSE,158,2.4,3.5,39,0.00,CLR,,0.00,WeatherDisplay:10.37,2013-01-26 20:06:00,
2013-01-26 14:11:00,23.9,1.9,30.33,South,180,3.3,5.8,38,0.00,CLR,,0.00,WeatherDisplay:10.37,2013-01-26 20:11:00,
2013-01-26 14:16:00,24.3,2.8,30.33,South,180,2.4,3.5,39,0.00,CLR,,0.00,WeatherDisplay:10.37,2013-01-26 20:16:00,
2013-01-26 14:21:00,24.3,2.8,30.33,SSW,202,2.4,4.6,39,0.00,CLR,,0.00,WeatherDisplay:10.37,2013-01-26 20:21:00,
2013-01-26 14:26:00,24.1,2.7,30.30,NW,315,2.4,3.5,39,0.00,CLR,,0.00,WeatherDisplay:10.37,2013-01-26 20:26:00,
2013-01-26 14:31:00,24.4,3.0,30.30,SSE,158,4.3,6.9,39,0.00,CLR,,0.00,WeatherDisplay:10.37,2013-01-26 20:31:00,
2013-01-26 14:36:00,23.9,2.5,30.30,SSW,202,2.0,3.5,39,0.00,CLR,,0.00,WeatherDisplay:10.37,2013-01-26 20:36:00,
2013-01-26 14:41:00,25.2,3.6,30.27,SSE,158,4.0,7.1,39,0.00,CLR,,0.00,WeatherDisplay:10.37,2013-01-26 20:41:00,
2013-01-26 14:46:00,25.2,3.6,30.27,SSW,202,2.0,2.3,39,0.00,CLR,,0.00,WeatherDisplay:10.37,2013-01-26 20:46:00,
2013-01-26 14:51:00,25.2,3.6,30.27,WSW,248,2.2,4.9,39,0.00,CLR,,0.00,WeatherDisplay:10.37,2013-01-26 20:51:00,
2013-01-26 14:56:00,25.2,3.6,30.30,SW,225,3.1,6.9,39,0.00,CLR,,0.00,WeatherDisplay:10.37,2013-01-26 20:56:00,
2013-01-26 15:01:00,25.2,3.6,30.30,SSE,158,3.1,5.8,39,0.00,CLR,,0.00,WeatherDisplay:10.37,2013-01-26 21:01:00,
2013-01-26 15:06:00,25.2,3.6,30.30,SE,135,2.9,3.8,39,0.00,CLR,,0.00,WeatherDisplay:10.37,2013-01-26 21:06:00,
2013-01-26 15:11:00,25.2,3.6,30.30,SSE,158,3.3,4.6,39,0.00,CLR,,0.00,WeatherDisplay:10.37,2013-01-26 21:11:00,
2013-01-26 15:16:00,25.2,3.6,30.30,South,180,4.9,5.8,39,0.00,CLR,,0.00,WeatherDisplay:10.37,2013-01-26 21:16:00,
2013-01-26 15:21:00,25.2,3.6,30.30,South,180,5.4,9.2,39,0.00,CLR,,0.00,WeatherDisplay:10.37,2013-01-26 21:21:00,
2013-01-26 15:26:00,25.2,3.6,30.30,SSE,158,2.0,3.5,39,0.00,CLR,,0.00,WeatherDisplay:10.37,2013-01-26 21:26:00,
2013-01-26 15:31:00,21.9,1.2,30.30,SSE,158,3.1,6.0,40,0.00,CLR,,0.00,WeatherDisplay:10.37,2013-01-26 21:31:00,
2013-01-26 15:36:00,21.7,1.1,30.30,SSE,158,3.6,6.9,40,0.00,CLR,,0.00,WeatherDisplay:10.37,2013-01-26 21:36:00,
2013-01-26 15:41:00,21.6,0.9,30.30,SE,135,3.8,5.8,40,0.00,CLR,,0.00,WeatherDisplay:10.37,2013-01-26 21:41:00,
2013-01-26 15:46:00,21.6,0.9,30.30,SSE,158,4.0,5.8,40,0.00,CLR,,0.00,WeatherDisplay:10.37,2013-01-26 21:46:00,
2013-01-26 15:51:00,21.6,1.5,30.30,SSE,158,7.4,10.4,41,0.00,CLR,,0.00,WeatherDisplay:10.37,2013-01-26 21:51:00,
2013-01-26 15:56:00,21.6,1.5,30.30,SSE,158,4.3,6.9,41,0.00,CLR,,0.00,WeatherDisplay:10.37,2013-01-26 21:56:00,
2013-01-26 16:01:00,21.7,1.6,30.30,SSE,158,4.3,8.1,41,0.00,CLR,,0.00,WeatherDisplay:10.37,2013-01-26 22:01:00,
2013-01-26 16:06:00,21.7,1.6,30.30,SSE,158,4.5,5.8,41,0.00,CLR,,0.00,WeatherDisplay:10.37,2013-01-26 22:06:00,
2013-01-26 16:11:00,21.9,2.3,30.27,SE,135,4.5,5.8,42,0.00,CLR,,0.00,WeatherDisplay:10.37,2013-01-26 22:11:00,
2013-01-26 16:16:00,21.7,2.1,30.27,SSW,202,5.4,6.9,42,0.00,CLR,,0.00,WeatherDisplay:10.37,2013-01-26 22:16:00,
2013-01-26 16:21:00,21.6,2.0,30.27,ESE,112,3.3,5.8,42,0.00,CLR,,0.00,WeatherDisplay:10.37,2013-01-26 22:21:00,
2013-01-26 16:26:00,21.6,2.0,30.30,ESE,112,4.3,5.8,42,0.00,CLR,,0.00,WeatherDisplay:10.37,2013-01-26 22:26:00,
2013-01-26 16:31:00,21.6,2.0,30.30,SSE,158,3.8,4.9,42,0.00,CLR,,0.00,WeatherDisplay:10.37,2013-01-26 22:31:00,
2013-01-26 16:36:00,21.4,1.8,30.30,SSE,158,6.0,8.1,42,0.00,CLR,,0.00,WeatherDisplay:10.37,2013-01-26 22:36:00,
2013-01-26 16:41:00,21.4,1.8,30.27,South,180,3.8,7.4,42,0.00,CLR,,0.00,WeatherDisplay:10.37,2013-01-26 22:41:00,
2013-01-26 16:46:00,21.4,1.8,30.27,SSE,158,4.0,5.8,42,0.00,CLR,,0.00,WeatherDisplay:10.37,2013-01-26 22:46:00,
2013-01-26 16:51:00,21.2,2.2,30.27,SE,135,5.4,9.2,43,0.00,CLR,,0.00,WeatherDisplay:10.37,2013-01-26 22:51:00,
2013-01-26 16:56:00,21.2,2.2,30.27,SSE,158,5.6,8.1,43,0.00,CLR,,0.00,WeatherDisplay:10.37,2013-01-26 22:56:00,
2013-01-26 17:01:00,21.2,2.2,30.27,SE,135,4.3,5.8,43,0.00,CLR,,0.00,WeatherDisplay:10.37,2013-01-26 23:01:00,
2013-01-26 17:06:00,21.2,2.2,30.27,South,180,4.7,6.9,43,0.00,CLR,,0.00,WeatherDisplay:10.37,2013-01-26 23:06:00,
2013-01-26 17:12:00,21.2,2.2,30.27,SSE,158,4.9,6.9,43,0.00,CLR,,0.00,WeatherDisplay:10.37,2013-01-26 23:12:00,
2013-01-26 17:17:00,21.2,2.2,30.27,South,180,3.6,5.8,43,0.00,CLR,,0.00,WeatherDisplay:10.37,2013-01-26 23:17:00,
2013-01-26 17:22:00,21.2,2.2,30.27,SSW,202,3.1,5.8,43,0.00,CLR,,0.00,WeatherDisplay:10.37,2013-01-26 23:22:00,
2013-01-26 17:27:00,21.2,2.2,30.27,SE,135,3.1,3.5,43,0.00,CLR,,0.00,WeatherDisplay:10.37,2013-01-26 23:27:00,
2013-01-26 17:32:00,21.2,2.6,30.27,South,180,2.2,4.3,44,0.00,CLR,,0.00,WeatherDisplay:10.37,2013-01-26 23:32:00,
2013-01-26 17:37:00,21.2,2.6,30.27,SSW,202,2.6,4.6,44,0.00,CLR,,0.00,WeatherDisplay:10.37,2013-01-26 23:37:00,
2013-01-26 17:42:00,21.2,2.6,30.27,SSE,158,3.1,7.1,44,0.00,CLR,,0.00,WeatherDisplay:10.37,2013-01-26 23:42:00,
2013-01-26 17:47:00,21.2,2.6,30.27,SSE,158,2.9,4.6,44,0.00,CLR,,0.00,WeatherDisplay:10.37,2013-01-26 23:47:00,
2013-01-26 17:52:00,21.2,2.6,30.27,South,180,2.0,2.3,44,0.00,CLR,,0.00,WeatherDisplay:10.37,2013-01-26 23:52:00,
2013-01-26 17:57:00,21.2,2.6,30.27,SE,135,2.6,3.5,44,0.00,CLR,,0.00,WeatherDisplay:10.37,2013-01-26 23:57:00,
2013-01-26 18:02:00,21.2,2.6,30.27,SE,135,1.6,2.3,44,0.00,CLR,,0.00,WeatherDisplay:10.37,2013-01-27 00:02:00,
2013-01-26 18:07:00,21.2,2.6,30.27,SSE,158,2.6,3.5,44,0.00,CLR,,0.00,WeatherDisplay:10.37,2013-01-27 00:07:00,
2013-01-26 18:12:00,21.2,2.6,30.27,SE,135,3.3,4.6,44,0.00,CLR,,0.00,WeatherDisplay:10.37,2013-01-27 00:12:00,
2013-01-26 18:17:00,21.2,2.6,30.27,ESE,112,3.1,4.6,44,0.00,CLR,,0.00,WeatherDisplay:10.37,2013-01-27 00:17:00,
2013-01-26 18:22:00,21.4,2.8,30.27,SE,135,3.8,4.6,44,0.00,CLR,,0.00,WeatherDisplay:10.37,2013-01-27 00:22:00,
2013-01-26 18:27:00,21.4,2.8,30.25,SSE,158,4.0,5.8,44,0.00,CLR,,0.00,WeatherDisplay:10.37,2013-01-27 00:27:00,
2013-01-26 18:32:00,21.4,2.8,30.25,SW,225,4.3,6.9,44,0.00,CLR,,0.00,WeatherDisplay:10.37,2013-01-27 00:32:00,
2013-01-26 18:37:00,21.4,2.8,30.25,SE,135,4.7,6.9,44,0.00,CLR,,0.00,WeatherDisplay:10.37,2013-01-27 00:37:00,
2013-01-26 18:42:00,21.4,2.8,30.27,SSE,158,3.1,5.8,44,0.00,CLR,,0.00,WeatherDisplay:10.37,2013-01-27 00:42:00,
2013-01-26 18:47:00,21.4,2.8,30.27,South,180,3.6,4.6,44,0.00,CLR,,0.00,WeatherDisplay:10.37,2013-01-27 00:47:00,
2013-01-26 18:52:00,21.4,2.8,30.27,ESE,112,4.3,6.9,44,0.00,CLR,,0.00,WeatherDisplay:10.37,2013-01-27 00:52:00,
2013-01-26 18:57:00,21.4,2.8,30.27,SE,135,3.8,5.8,44,0.00,CLR,,0.00,WeatherDisplay:10.37,2013-01-27 00:57:00,
2013-01-26 19:02:00,21.6,3.0,30.27,SE,135,3.6,5.8,44,0.00,CLR,,0.00,WeatherDisplay:10.37,2013-01-27 01:02:00,
2013-01-26 19:07:00,21.6,3.0,30.27,SE,135,4.0,5.8,44,0.00,CLR,,0.00,WeatherDisplay:10.37,2013-01-27 01:07:00,
2013-01-26 19:12:00,21.6,3.0,30.27,South,180,2.9,5.8,44,0.00,CLR,,0.00,WeatherDisplay:10.37,2013-01-27 01:12:00,
2013-01-26 19:17:00,21.6,3.0,30.27,SSE,158,3.3,6.9,44,0.00,CLR,,0.00,WeatherDisplay:10.37,2013-01-27 01:17:00,
2013-01-26 19:22:00,21.6,3.0,30.27,SE,135,3.8,4.6,44,0.00,CLR,,0.00,WeatherDisplay:10.37,2013-01-27 01:22:00,
2013-01-26 19:27:00,21.6,3.5,30.27,SSW,202,3.6,4.6,45,0.00,CLR,,0.00,WeatherDisplay:10.37,2013-01-27 01:27:00,
2013-01-26 19:32:00,21.7,3.6,30.27,SE,135,3.3,4.9,45,0.00,CLR,,0.00,WeatherDisplay:10.37,2013-01-27 01:32:00,
2013-01-26 19:37:00,21.7,3.6,30.27,SSE,164,6.0,7.0,45,0.00,CLR,,0.00,WeatherDisplay:10.37,2013-01-27 01:37:00,
2013-01-26 19:42:00,21.7,3.6,30.27,SSW,202,4.5,5.8,45,0.00,CLR,,0.00,WeatherDisplay:10.37,2013-01-27 01:42:00,
2013-01-26 19:47:00,21.7,3.6,30.27,SSE,163,5.0,8.0,45,0.00,CLR,,0.00,WeatherDisplay:10.37,2013-01-27 01:47:00,
2013-01-26 19:52:00,21.7,3.6,30.27,SSE,158,3.8,9.2,45,0.00,CLR,,0.00,WeatherDisplay:10.37,2013-01-27 01:52:00,
2013-01-26 19:57:00,21.7,3.6,30.27,SSE,158,4.3,5.8,45,0.00,CLR,,0.00,WeatherDisplay:10.37,2013-01-27 01:57:00,
2013-01-26 20:02:00,21.7,3.6,30.27,ESE,112,7.1,8.1,45,0.00,CLR,,0.00,WeatherDisplay:10.37,2013-01-27 02:02:00,
2013-01-26 20:07:00,21.9,3.8,30.27,SSW,202,2.9,6.9,45,0.00,CLR,,0.00,WeatherDisplay:10.37,2013-01-27 02:07:00,
2013-01-26 20:12:00,21.9,3.8,30.25,SSE,160,3.0,6.0,45,0.00,CLR,,0.00,WeatherDisplay:10.37,2013-01-27 02:12:00,
2013-01-26 20:17:00,21.9,3.8,30.25,South,180,3.1,3.5,45,0.00,CLR,,0.00,WeatherDisplay:10.37,2013-01-27 02:17:00,
2013-01-26 20:22:00,21.9,3.8,30.25,SSE,165,5.0,6.0,45,0.00,CLR,,0.00,WeatherDisplay:10.37,2013-01-27 02:22:00,
2013-01-26 20:27:00,21.9,3.8,30.25,South,180,4.3,5.8,45,0.00,CLR,,0.00,WeatherDisplay:10.37,2013-01-27 02:27:00,
2013-01-26 20:32:00,21.9,4.3,30.25,SE,135,3.6,4.6,46,0.00,CLR,,0.00,WeatherDisplay:10.37,2013-01-27 02:32:00,
2013-01-26 20:37:00,21.9,4.3,30.25,SSE,158,3.3,4.6,46,0.00,CLR,,0.00,WeatherDisplay:10.37,2013-01-27 02:37:00,
2013-01-26 20:42:00,21.9,4.3,30.25,SSE,158,3.3,3.6,46,0.00,CLR,,0.00,WeatherDisplay:10.37,2013-01-27 02:42:00,
2013-01-26 20:47:00,21.9,4.3,30.25,ESE,112,3.8,4.6,46,0.00,CLR,,0.00,WeatherDisplay:10.37,2013-01-27 02:47:00,
2013-01-26 20:52:00,21.9,4.3,30.25,ESE,112,4.7,5.8,46,0.00,CLR,,0.00,WeatherDisplay:10.37,2013-01-27 02:52:00,
2013-01-26 20:57:00,21.9,4.3,30.25,SSE,158,3.8,4.6,46,0.00,CLR,,0.00,WeatherDisplay:10.37,2013-01-27 02:57:00,
2013-01-26 21:02:00,21.9,4.7,30.25,ESE,112,4.0,5.8,47,0.00,CLR,,0.00,WeatherDisplay:10.37,2013-01-27 03:02:00,
2013-01-26 21:07:00,21.9,4.7,30.25,SSE,158,3.3,4.6,47,0.00,CLR,,0.00,WeatherDisplay:10.37,2013-01-27 03:07:00,
2013-01-26 21:12:00,21.9,4.7,30.25,SSE,158,3.3,4.6,47,0.00,CLR,,0.00,WeatherDisplay:10.37,2013-01-27 03:12:00,
2013-01-26 21:17:00,22.1,4.9,30.25,ESE,112,4.7,5.8,47,0.00,CLR,,0.00,WeatherDisplay:10.37,2013-01-27 03:17:00,
2013-01-26 21:22:00,22.1,4.9,30.25,South,180,6.7,9.7,47,0.00,CLR,,0.00,WeatherDisplay:10.37,2013-01-27 03:22:00,
2013-01-26 21:27:00,22.1,4.9,30.25,SE,135,4.7,6.9,47,0.00,CLR,,0.00,WeatherDisplay:10.37,2013-01-27 03:27:00,
2013-01-26 21:32:00,22.1,5.4,30.25,ESE,112,3.8,5.8,48,0.00,CLR,,0.00,WeatherDisplay:10.37,2013-01-27 03:32:00,
2013-01-26 21:37:00,22.3,5.5,30.25,South,180,4.5,5.8,48,0.00,CLR,,0.00,WeatherDisplay:10.37,2013-01-27 03:37:00,
2013-01-26 21:42:00,22.3,5.1,30.25,SE,135,4.5,5.8,47,0.00,CLR,,0.00,WeatherDisplay:10.37,2013-01-27 03:42:00,
2013-01-26 21:47:00,22.3,5.1,30.25,SSE,158,6.0,9.2,47,0.00,CLR,,0.00,WeatherDisplay:10.37,2013-01-27 03:47:00,
2013-01-26 21:52:00,22.3,5.5,30.25,South,180,4.7,6.4,48,0.00,CLR,,0.00,WeatherDisplay:10.37,2013-01-27 03:52:00,
2013-01-26 21:57:00,22.3,5.1,30.25,SSE,158,5.9,6.9,47,0.00,CLR,,0.00,WeatherDisplay:10.37,2013-01-27 03:57:00,
2013-01-26 22:02:00,22.3,5.5,30.25,South,180,5.4,8.1,48,0.00,CLR,,0.00,WeatherDisplay:10.37,2013-01-27 04:02:00,
2013-01-26 22:07:00,22.5,5.2,30.25,WSW,248,5.9,5.9,47,0.00,CLR,,0.00,WeatherDisplay:10.37,2013-01-27 04:07:00,
2013-01-26 22:12:00,22.5,5.2,30.25,SSE,158,5.4,10.4,47,0.00,CLR,,0.00,WeatherDisplay:10.37,2013-01-27 04:12:00,
2013-01-26 22:17:00,22.6,5.4,30.25,South,180,6.9,12.8,47,0.00,CLR,,0.00,WeatherDisplay:10.37,2013-01-27 04:17:00,
2013-01-26 22:22:00,22.6,5.4,30.25,SSE,158,7.4,12.7,47,0.00,CLR,,0.00,WeatherDisplay:10.37,2013-01-27 04:22:00,
2013-01-26 22:27:00,22.8,5.1,30.25,South,180,8.5,9.8,46,0.00,CLR,,0.00,WeatherDisplay:10.37,2013-01-27 04:27:00,
2013-01-26 22:32:00,22.8,5.6,30.25,South,180,8.1,12.8,47,0.00,CLR,,0.00,WeatherDisplay:10.37,2013-01-27 04:32:00,
2013-01-26 22:37:00,22.8,5.6,30.25,SSE,158,5.4,8.1,47,0.00,CLR,,0.00,WeatherDisplay:10.37,2013-01-27 04:37:00,
2013-01-26 22:42:00,22.8,5.6,30.25,SSE,158,9.4,10.4,47,0.00,CLR,,0.00,WeatherDisplay:10.37,2013-01-27 04:42:00,
2013-01-26 22:47:00,22.8,5.6,30.25,SSE,158,3.8,6.9,47,0.00,CLR,,0.00,WeatherDisplay:10.37,2013-01-27 04:47:00,
2013-01-26 22:52:00,22.8,5.6,30.25,SE,135,4.7,5.8,47,0.00,CLR,,0.00,WeatherDisplay:10.37,2013-01-27 04:52:00,
2013-01-26 22:57:00,22.8,5.6,30.25,SSE,158,4.5,7.6,47,0.00,CLR,,0.00,WeatherDisplay:10.37,2013-01-27 04:57:00,
2013-01-26 23:01:00,22.8,5.6,30.25,SE,135,5.4,6.9,47,0.00,CLR,,0.00,WeatherDisplay:10.37,2013-01-27 05:01:00,
2013-01-26 23:03:00,23.0,5.7,30.25,ESE,112,4.3,5.8,47,0.00,CLR,,0.00,WeatherDisplay:10.37,2013-01-27 05:03:00,
2013-01-26 23:08:00,22.8,5.6,30.25,SSE,158,4.9,8.1,47,0.00,CLR,,0.00,WeatherDisplay:10.37,2013-01-27 05:08:00,
2013-01-26 23:13:00,22.8,5.6,30.25,South,180,3.3,5.8,47,0.00,CLR,,0.00,WeatherDisplay:10.37,2013-01-27 05:13:00,
2013-01-26 23:18:00,22.8,5.6,30.25,SE,135,8.5,12.7,47,0.00,CLR,,0.00,WeatherDisplay:10.37,2013-01-27 05:18:00,
2013-01-26 23:23:00,22.8,5.6,30.25,South,180,5.9,6.2,47,0.00,CLR,,0.00,WeatherDisplay:10.37,2013-01-27 05:23:00,
2013-01-26 23:28:00,22.8,5.6,30.25,South,180,5.9,8.1,47,0.00,CLR,,0.00,WeatherDisplay:10.37,2013-01-27 05:28:00,
2013-01-26 23:33:00,22.8,5.6,30.25,South,180,7.4,9.2,47,0.00,CLR,,0.00,WeatherDisplay:10.37,2013-01-27 05:33:00,
2013-01-26 23:38:00,23.0,5.7,30.25,SE,135,7.4,11.5,47,0.00,CLR,,0.00,WeatherDisplay:10.37,2013-01-27 05:38:00,
2013-01-26 23:43:00,23.0,6.2,30.25,South,180,4.9,6.9,48,0.00,CLR,,0.00,WeatherDisplay:10.37,2013-01-27 05:43:00,
2013-01-26 23:48:00,23.0,5.7,30.25,South,180,7.1,11.5,47,0.00,CLR,,0.00,WeatherDisplay:10.37,2013-01-27 05:48:00,
2013-01-26 23:53:00,23.0,6.2,30.25,South,180,6.7,9.2,48,0.00,CLR,,0.00,WeatherDisplay:10.37,2013-01-27 05:53:00,
2013-01-26 23:58:00,23.0,6.2,30.25,South,180,6.4,8.1,48,0.00,CLR,,0.00,WeatherDisplay:10.37,2013-01-27 05:58:00,